Greene, Ohio
Current Conditions -  °F | °C
As of 5:51 PM on Wednesday 26 Nov 2014 (Local Time) from KYNG Reporting Station
Overcast Overcast  
Wind Chill: 35°   Ceiling: 2600
Heat Index: 35°   Visibility: 10mi
Dew Point: 29°   Wind: 3mph
Humidity: 78%   Direction: 90°E
Pressure: 30.01"   Gusts: NA
Location:  41.4555°N, 80.829°W
Report Text: KYNG 262251Z 09003KT 10SM BKN026 OVC034 02/M02 A3001 RMK AO2 SLP173 T00171017
Loading
Personal Weather Stations






























Interactive Weather Map New forecast layout! Learn more

10-Day Weather Forecast

Advertisements
Track Severe Weather on mobile